Fluvius Teign — 8PLU — position and weather

sailwx.info

Track history (hours):
 
Tides and Currents Weather Stations Pressure Air Temp Water Temp Dewpoint Dewpoint Depression Visibility Wind Speed Wind Dir Waves Ship Positions

Fluvius Teign

Last reported at 2018-Jun-25 10:00 UTC. Time now 2018-Jun-25 10:01 UTC.
Position N 50°30' W 000°10'.

Length 81 m; draft 5.4 m.

Type: Cargo ship. MMSI: 314021000.

Date/timePositionNaut miles runAvg speedWind from/ knotsBaromVisibWave heightAir tempDewpointWater temp
2018-Jun-25 10:00N 50°30' W 000°10'5 9.2
2018-Jun-25 09:26N 50°32' W 000°02'6 8.6
2018-Jun-25 08:47N 50°33' E 000°07'2 8.2
2018-Jun-25 08:30N 50°34' E 000°10'4 8.0
2018-Jun-25 08:00N 50°35' E 000°16'4 7.6
2018-Jun-25 07:30N 50°36' E 000°22'4 7.5
2018-Jun-25 07:00N 50°38' E 000°28'4 7.9
2018-Jun-25 06:30N 50°39' E 000°34'4 8.4
2018-Jun-25 06:00N 50°41' E 000°39'5 9.1
2018-Jun-25 05:30N 50°44' E 000°45'5 9.5
2018-Jun-25 05:00N 50°46' E 000°51'510.0
2018-Jun-25 04:30N 50°49' E 000°58'510.5
2018-Jun-25 04:00N 50°52' E 001°04'510.6
2018-Jun-25 03:30N 50°56' E 001°11'510.6
2018-Jun-25 03:00N 50°59' E 001°17'510.4
2018-Jun-25 02:30N 51°02' E 001°24'5 9.7
2018-Jun-25 02:00N 51°06' E 001°29'4 8.8
2018-Jun-25 01:30N 51°09' E 001°35'4 8.1
2018-Jun-25 01:00N 51°11' E 001°40'4 7.7
2018-Jun-25 00:30N 51°14' E 001°44'4 7.6
2018-Jun-25 00:00N 51°17' E 001°47'4 7.5
2018-Jun-24 23:30N 51°20' E 001°50'4 7.4
2018-Jun-24 23:00N 51°24' E 001°53'4 7.7
2018-Jun-24 22:30N 51°27' E 001°56'4 8.3
2018-Jun-24 22:00N 51°30' E 002°00'4 8.6
2018-Jun-24 21:30N 51°33' E 002°05'4 8.7
2018-Jun-24 21:00N 51°36' E 002°10'5 9.0
2018-Jun-24 20:30N 51°40' E 002°15'5 9.5
2018-Jun-24 20:00N 51°43' E 002°20'510.1
2018-Jun-24 19:30N 51°47' E 002°25'510.4
2018-Jun-24 19:00N 51°51' E 002°31'510.6
2018-Jun-24 18:30N 51°55' E 002°37'510.6
2018-Jun-24 18:00N 51°59' E 002°42'510.7
2018-Jun-24 17:30N 52°03' E 002°48'510.5
2018-Jun-24 17:00N 52°07' E 002°54'510.1
2018-Jun-24 16:28N 52°11' E 002°60'5 9.5
2018-Jun-24 15:59N 52°14' E 003°06'4 9.3
2018-Jun-24 15:30N 52°16' E 003°12'4 8.9
2018-Jun-24 15:00N 52°18' E 003°18'4 8.6
2018-Jun-24 14:30N 52°20' E 003°24'4 8.4
2018-Jun-24 13:59N 52°23' E 003°30'4 8.1
2018-Jun-24 13:27N 52°25' E 003°37'4 8.0
2018-Jun-24 13:00N 52°27' E 003°41'4 7.7
2018-Jun-24 12:29N 52°29' E 003°47'4 7.5
2018-Jun-24 12:00N 52°31' E 003°52'4 7.5
2018-Jun-24 11:30N 52°31' E 003°58'4 8.0
2018-Jun-24 11:00N 52°31' E 004°05'4 8.1
2018-Jun-24 10:30N 52°31' E 004°11'4 8.6
2018-Jun-24 10:00N 52°30' E 004°18'4 8.6
2018-Jun-24 09:30N 52°29' E 004°25'4 8.6
2018-Jun-24 09:01N 52°28' E 004°32'3 5.3
2018-Jun-24 08:30N 52°28' E 004°36'0 0.0
2018-Jun-24 07:58N 52°28' E 004°36'0 0.0
2018-Jun-24 07:28N 52°28' E 004°36'0 0.0
2018-Jun-24 06:58N 52°28' E 004°36'0 0.0
2018-Jun-24 06:28N 52°28' E 004°36'0 0.0
2018-Jun-24 05:58N 52°28' E 004°36'0 0.0
2018-Jun-24 05:28N 52°28' E 004°36'0 0.0
2018-Jun-24 04:58N 52°28' E 004°36'0 0.0
2018-Jun-24 04:28N 52°28' E 004°36'0 0.0
2018-Jun-24 03:58N 52°28' E 004°36'0 0.0
2018-Jun-24 03:28N 52°28' E 004°36'0 0.0
2018-Jun-24 02:58N 52°28' E 004°36'0 0.0
2018-Jun-24 02:28N 52°28' E 004°36'0 0.0
2018-Jun-24 01:58N 52°28' E 004°36'0 0.0
2018-Jun-24 01:28N 52°28' E 004°36'0 0.0
2018-Jun-24 00:58N 52°28' E 004°36'0 0.0
2018-Jun-24 00:28N 52°28' E 004°36'0 0.0
2018-Jun-24 00:01N 52°28' E 004°36'0 0.0
2018-Jun-23 23:30N 52°28' E 004°36'0 0.0
2018-Jun-23 23:00N 52°28' E 004°36'0 0.0
2018-Jun-23 22:30N 52°28' E 004°36'0 0.0
2018-Jun-23 22:00N 52°28' E 004°36'0 0.0
2018-Jun-23 21:30N 52°28' E 004°36'0 0.0
2018-Jun-23 21:00N 52°28' E 004°36'0 0.0
2018-Jun-23 20:30N 52°28' E 004°36'0 0.0
2018-Jun-23 20:00N 52°28' E 004°36'0 0.0
2018-Jun-23 19:30N 52°28' E 004°36'0 0.0
2018-Jun-23 19:00N 52°28' E 004°36'0 0.0
2018-Jun-23 18:30N 52°28' E 004°36'0 0.0
2018-Jun-23 18:00N 52°28' E 004°36'0 0.0
2018-Jun-23 17:30N 52°28' E 004°36'0 0.0
2018-Jun-23 17:00N 52°28' E 004°36'0 0.0
2018-Jun-23 16:30N 52°28' E 004°36'0 0.0
2018-Jun-23 16:00N 52°28' E 004°36'0 0.0
2018-Jun-23 15:30N 52°28' E 004°36'0 0.0
2018-Jun-23 15:00N 52°28' E 004°36'0 0.0
2018-Jun-23 14:30N 52°28' E 004°36'0 0.0
2018-Jun-23 13:57N 52°28' E 004°36'0 0.1
2018-Jun-23 13:26N 52°28' E 004°36'0 0.0
2018-Jun-23 12:59N 52°28' E 004°36'0 0.0
2018-Jun-23 12:29N 52°28' E 004°36'0 0.0
2018-Jun-23 11:59N 52°28' E 004°36'0 0.0
2018-Jun-23 11:26N 52°28' E 004°36'0 0.0
2018-Jun-23 10:59N 52°28' E 004°36'0 0.0
2018-Jun-23 10:29N 52°28' E 004°36'0 0.0
2018-Jun-23 10:00N 52°28' E 004°36'1 1.2
2018-Jun-23 09:31N 52°28' E 004°35'1 1.0
2018-Jun-23 09:00N 52°28' E 004°36'1 2.4
2018-Jun-23 08:31N 52°28' E 004°38'0 0.0
2018-Jun-23 07:56N 52°28' E 004°38'0 0.0
2018-Jun-23 07:29N 52°28' E 004°38'0 0.0
2018-Jun-23 06:59N 52°28' E 004°38'0 0.0
2018-Jun-23 06:29N 52°28' E 004°38'0 0.0
2018-Jun-23 05:53N 52°28' E 004°38'0 0.0
2018-Jun-23 05:29N 52°28' E 004°38'0 0.0
2018-Jun-23 04:59N 52°28' E 004°38'0 0.0
2018-Jun-23 04:29N 52°28' E 004°38'0 0.0
2018-Jun-23 03:56N 52°28' E 004°38'0 0.0
2018-Jun-23 03:29N 52°28' E 004°38'0 0.0
2018-Jun-23 02:56N 52°28' E 004°38'0 0.0
2018-Jun-23 02:29N 52°28' E 004°38'0 0.0
2018-Jun-23 01:56N 52°28' E 004°38'0 0.0
2018-Jun-23 01:29N 52°28' E 004°38'0 0.0
2018-Jun-23 00:56N 52°28' E 004°38'0 0.0
2018-Jun-23 00:29N 52°28' E 004°38'0 0.0
2018-Jun-22 23:59N 52°28' E 004°38'0 0.0
2018-Jun-22 23:29N 52°28' E 004°38'0 0.0
2018-Jun-22 22:59N 52°28' E 004°38'0 0.0
2018-Jun-22 22:29N 52°28' E 004°38'0 0.0
2018-Jun-22 21:58N 52°28' E 004°38'0 0.0
2018-Jun-22 21:28N 52°28' E 004°38'0 0.0
2018-Jun-22 20:55N 52°28' E 004°38'0 0.0
2018-Jun-22 20:28N 52°28' E 004°38'0 0.0
2018-Jun-22 19:58N 52°28' E 004°38'0 0.0
2018-Jun-22 19:28N 52°28' E 004°38'0 0.0
2018-Jun-22 18:58N 52°28' E 004°38'0 0.0
2018-Jun-22 18:25N 52°28' E 004°38'0 0.0
2018-Jun-22 17:55N 52°28' E 004°38'0 0.0
2018-Jun-22 17:28N 52°28' E 004°38'0 0.0
2018-Jun-22 16:55N 52°28' E 004°38'0 0.0
2018-Jun-22 16:28N 52°28' E 004°38'0 0.0
2018-Jun-22 15:58N 52°28' E 004°38'0 0.0
2018-Jun-22 15:28N 52°28' E 004°38'0 0.0
2018-Jun-22 14:58N 52°28' E 004°38'0 0.0
2018-Jun-22 14:28N 52°28' E 004°38'0 0.0
2018-Jun-22 13:58N 52°28' E 004°38'0 0.0
2018-Jun-22 13:28N 52°28' E 004°38'0 0.0
2018-Jun-22 12:58N 52°28' E 004°38'0 0.0
2018-Jun-22 12:25N 52°28' E 004°38'0 0.0
2018-Jun-22 11:58N 52°28' E 004°38'0 0.0
2018-Jun-22 11:28N 52°28' E 004°38'0 0.3
2018-Jun-22 11:00N 52°28' E 004°38'1 3.0
2018-Jun-22 10:30N 52°28' E 004°35'2 4.6
2018-Jun-22 10:01N 52°28' E 004°32'5 9.2
2018-Jun-22 09:30N 52°28' E 004°24'5 9.3
2018-Jun-22 09:00N 52°28' E 004°16'4 8.4
2018-Jun-22 08:30N 52°27' E 004°10'4 7.3
2018-Jun-22 08:00N 52°24' E 004°07'3 6.1
2018-Jun-22 07:30N 52°21' E 004°05'3 5.2
2018-Jun-22 07:00N 52°19' E 004°04'2 4.3
2018-Jun-22 06:30N 52°17' E 004°04'2 4.4
2018-Jun-22 06:00N 52°14' E 004°03'3 5.5
2018-Jun-22 05:30N 52°12' E 004°02'3 5.6
2018-Jun-22 05:00N 52°09' E 004°01'3 5.8
2018-Jun-22 04:30N 52°07' E 003°58'3 5.8
2018-Jun-22 04:00N 52°04' E 003°56'3 5.3
2018-Jun-22 03:30N 52°02' E 003°54'4 7.3
2018-Jun-22 03:00N 52°01' E 003°59'5 9.2
2018-Jun-22 02:30N 51°59' E 004°06'611.6
2018-Jun-22 02:00N 51°55' E 004°14'510.2
2018-Jun-22 01:30N 51°52' E 004°20'4 8.7
2018-Jun-22 01:00N 51°50' E 004°26'4 8.6
2018-Jun-22 00:30N 51°50' E 004°33'4 7.2
2018-Jun-22 00:00N 51°47' E 004°37'4 7.1
2018-Jun-21 23:30N 51°44' E 004°38'3 4.2
2018-Jun-21 22:52N 51°41' E 004°36'0 0.0
2018-Jun-21 22:28N 51°41' E 004°36'0 0.1
2018-Jun-21 21:55N 51°42' E 004°36'0 0.1
2018-Jun-21 21:28N 51°41' E 004°36'0 0.0
2018-Jun-21 20:58N 51°41' E 004°36'0 0.0
2018-Jun-21 20:28N 51°41' E 004°36'0 0.0
2018-Jun-21 19:58N 51°41' E 004°36'0 0.0
2018-Jun-21 19:28N 51°41' E 004°36'0 0.0
2018-Jun-21 18:58N 51°41' E 004°36'0 0.0
2018-Jun-21 18:25N 51°41' E 004°36'0 0.0
2018-Jun-21 13:25N 51°41' E 004°36'0 0.0
2018-Jun-21 12:55N 51°41' E 004°36'0 0.0
2018-Jun-21 11:13N 51°41' E 004°36'0 0.0
2018-Jun-21 10:43N 51°41' E 004°36'0 0.0
2018-Jun-21 10:19N 51°41' E 004°36'0 0.0
2018-Jun-21 09:58N 51°41' E 004°36'0 0.0
2018-Jun-21 09:23N 51°41' E 004°36'0 0.9
2018-Jun-21 09:00N 51°42' E 004°35'3 6.9
2018-Jun-21 08:30N 51°45' E 004°38'4 8.0
2018-Jun-21 08:00N 51°48' E 004°35'4 7.9
2018-Jun-21 07:30N 51°50' E 004°29'4 8.3
2018-Jun-21 07:00N 51°51' E 004°22'4 7.2
2018-Jun-21 06:30N 51°54' E 004°19'4 8.7
2018-Jun-21 06:00N 51°56' E 004°13'4 8.1
2018-Jun-21 05:30N 51°58' E 004°08'4 7.5
2018-Jun-21 05:00N 51°59' E 004°02'4 7.5
2018-Jun-21 04:30N 51°60' E 003°56'4 8.1
2018-Jun-21 04:00N 51°59' E 003°49'4 7.3
2018-Jun-21 03:30N 51°58' E 003°44'3 6.0
2018-Jun-21 03:00N 51°57' E 003°39'3 5.5
2018-Jun-21 02:30N 51°56' E 003°35'3 5.4
2018-Jun-21 02:00N 51°56' E 003°31'2 4.8
2018-Jun-21 01:30N 51°55' E 003°27'3 5.1
2018-Jun-21 01:01N 51°54' E 003°23'3 5.4
2018-Jun-21 00:30N 51°53' E 003°19'3 5.7
2018-Jun-21 00:00N 51°52' E 003°15'3 6.4
2018-Jun-20 23:28N 51°51' E 003°09'4 7.5
2018-Jun-20 22:57N 51°50' E 003°03'17 8.0
2018-Jun-20 20:52N 51°45' E 002°38'3 8.9
2018-Jun-20 20:30N 51°42' E 002°34'4 9.0
2018-Jun-20 20:00N 51°39' E 002°30'5 9.2
2018-Jun-20 19:26N 51°35' E 002°25'4 9.6
2018-Jun-20 18:58N 51°31' E 002°20'4 9.1
2018-Jun-20 18:30N 51°28' E 002°16'4 9.1
2018-Jun-20 18:00N 51°24' E 002°12'5 9.3
2018-Jun-20 17:31N 51°20' E 002°08'5 9.2
2018-Jun-20 17:01N 51°16' E 002°05'4 8.9
2018-Jun-20 16:31N 51°13' E 002°00'4 8.6
2018-Jun-20 16:01N 51°10' E 001°55'4 8.3
2018-Jun-20 15:30N 51°07' E 001°50'4 8.7
2018-Jun-20 15:00N 51°04' E 001°45'4 8.3
2018-Jun-20 14:30N 51°01' E 001°40'4 7.4
2018-Jun-20 14:00N 50°58' E 001°37'3 6.7
2018-Jun-20 13:31N 50°56' E 001°33'3 6.1
2018-Jun-20 13:00N 50°54' E 001°30'3 5.8
2018-Jun-20 12:31N 50°51' E 001°27'3 6.2
2018-Jun-20 11:58N 50°48' E 001°25'3 6.6
2018-Jun-20 11:30N 50°46' E 001°22'3 6.6
2018-Jun-20 11:00N 50°43' E 001°19'4 7.2
2018-Jun-20 10:28N 50°41' E 001°15'4 7.5
2018-Jun-20 10:00N 50°38' E 001°10'4 7.4
2018-Jun-20 09:27N 50°36' E 001°05'4 7.8
2018-Jun-20 09:00N 50°34' E 001°01'4 7.8
2018-Jun-20 08:28N 50°31' E 000°55'6 8.0
2018-Jun-20 07:45N 50°30' E 000°47'2 8.1
2018-Jun-20 07:29N 50°29' E 000°43'5 8.1
2018-Jun-20 06:55N 50°28' E 000°36'3 8.2
2018-Jun-20 06:30N 50°27' E 000°31'4 8.4
2018-Jun-20 06:00N 50°26' E 000°25'5 8.5
2018-Jun-20 05:22N 50°24' E 000°17'3 8.7
2018-Jun-20 05:00N 50°23' E 000°12'5 8.9
2018-Jun-20 04:26N 50°22' E 000°05'5 9.2
2018-Jun-20 03:56N 50°20' W 000°02'5 9.6
2018-Jun-20 03:24N 50°19' W 000°10'1310.5
2018-Jun-20 02:09N 50°15' W 000°30'1411.4
2018-Jun-20 00:54N 50°11' W 000°51'2811.2
2018-Jun-19 22:25N 50°03' W 001°33'36 7.0
2018-Jun-19 17:14N 49°52' W 002°27'2 6.8
2018-Jun-19 17:00N 49°52' W 002°29'4 7.2
2018-Jun-19 16:26N 49°51' W 002°35'3 7.7
2018-Jun-19 16:00N 49°50' W 002°40'4 8.2
2018-Jun-19 15:31N 49°49' W 002°46'4 8.5
2018-Jun-19 15:00N 49°47' W 002°52'4 8.8
2018-Jun-19 14:30N 49°45' W 002°58'5 9.1
2018-Jun-19 14:00N 49°43' W 003°04'5 9.2
2018-Jun-19 13:28N 49°40' W 003°11'5 9.5
2018-Jun-19 12:57N 49°38' W 003°18'81 9.8
2018-Jun-19 04:38N 48°57' W 005°06'1 8.3
2018-Jun-19 04:28N 48°56' W 005°07'4 8.0
2018-Jun-19 03:57N 48°54' W 005°13'3 7.6
2018-Jun-19 03:30N 48°52' W 005°17'4 7.2
2018-Jun-19 02:54N 48°50' W 005°23'3 7.0
2018-Jun-19 02:29N 48°48' W 005°27'3 6.9
2018-Jun-19 02:00N 48°47' W 005°31'15 6.6
2018-Jun-18 23:41N 48°34' W 005°44'3 6.9
2018-Jun-18 23:18N 48°31' W 005°44'39 8.3
2018-Jun-18 18:36N 47°53' W 005°58'2 9.7
2018-Jun-18 18:26N 47°52' W 005°59'9 9.8
2018-Jun-18 17:32N 47°44' W 006°03'  
2018-Jun-15 17:09N 43°42' W 006°17'2 9.9
2018-Jun-15 16:56N 43°42' W 006°14'7 9.6
2018-Jun-15 16:14N 43°42' W 006°05'310.0
2018-Jun-15 15:59N 43°42' W 006°01'610.0
2018-Jun-15 15:22N 43°41' W 005°53'5 9.4
2018-Jun-15 14:50N 43°41' W 005°46'4 9.6
2018-Jun-15 14:26N 43°41' W 005°40'5 9.8
2018-Jun-15 13:58N 43°41' W 005°34'5 9.7
2018-Jun-15 13:28N 43°40' W 005°27'4 9.6
2018-Jun-15 13:00N 43°40' W 005°21'5 9.4
2018-Jun-15 12:27N 43°40' W 005°14'5 9.5
2018-Jun-15 11:56N 43°40' W 005°07'4 9.4
2018-Jun-15 11:30N 43°39' W 005°02'  
Track history (hours):
 
Tides and Currents Weather Stations Pressure Air Temp Water Temp Dewpoint Dewpoint Depression Visibility Wind Speed Wind Dir Waves Ship Positions

Fluvius Teign

Last reported at 2018-Jun-25 10:00 UTC. Time now 2018-Jun-25 10:01 UTC.
Position N 50°30' W 000°10'.

Length 81 m; draft 5.4 m.

Type: Cargo ship. MMSI: 314021000.

Date/timePositionNaut miles runAvg speedWind from/ knotsBaromVisibWave heightAir tempDewpointWater temp
2018-Jun-25 10:00N 50°30' W 000°10'5 9.2
2018-Jun-25 09:26N 50°32' W 000°02'6 8.6
2018-Jun-25 08:47N 50°33' E 000°07'2 8.2
2018-Jun-25 08:30N 50°34' E 000°10'4 8.0
2018-Jun-25 08:00N 50°35' E 000°16'4 7.6
2018-Jun-25 07:30N 50°36' E 000°22'4 7.5
2018-Jun-25 07:00N 50°38' E 000°28'4 7.9
2018-Jun-25 06:30N 50°39' E 000°34'4 8.4
2018-Jun-25 06:00N 50°41' E 000°39'5 9.1
2018-Jun-25 05:30N 50°44' E 000°45'5 9.5
2018-Jun-25 05:00N 50°46' E 000°51'510.0
2018-Jun-25 04:30N 50°49' E 000°58'510.5
2018-Jun-25 04:00N 50°52' E 001°04'510.6
2018-Jun-25 03:30N 50°56' E 001°11'510.6
2018-Jun-25 03:00N 50°59' E 001°17'510.4
2018-Jun-25 02:30N 51°02' E 001°24'5 9.7
2018-Jun-25 02:00N 51°06' E 001°29'4 8.8
2018-Jun-25 01:30N 51°09' E 001°35'4 8.1
2018-Jun-25 01:00N 51°11' E 001°40'4 7.7
2018-Jun-25 00:30N 51°14' E 001°44'4 7.6
2018-Jun-25 00:00N 51°17' E 001°47'4 7.5
2018-Jun-24 23:30N 51°20' E 001°50'4 7.4
2018-Jun-24 23:00N 51°24' E 001°53'4 7.7
2018-Jun-24 22:30N 51°27' E 001°56'4 8.3
2018-Jun-24 22:00N 51°30' E 002°00'4 8.6
2018-Jun-24 21:30N 51°33' E 002°05'4 8.7
2018-Jun-24 21:00N 51°36' E 002°10'5 9.0
2018-Jun-24 20:30N 51°40' E 002°15'5 9.5
2018-Jun-24 20:00N 51°43' E 002°20'510.1
2018-Jun-24 19:30N 51°47' E 002°25'510.4
2018-Jun-24 19:00N 51°51' E 002°31'510.6
2018-Jun-24 18:30N 51°55' E 002°37'510.6
2018-Jun-24 18:00N 51°59' E 002°42'510.7
2018-Jun-24 17:30N 52°03' E 002°48'510.5
2018-Jun-24 17:00N 52°07' E 002°54'510.1
2018-Jun-24 16:28N 52°11' E 002°60'5 9.5
2018-Jun-24 15:59N 52°14' E 003°06'4 9.3
2018-Jun-24 15:30N 52°16' E 003°12'4 8.9
2018-Jun-24 15:00N 52°18' E 003°18'4 8.6
2018-Jun-24 14:30N 52°20' E 003°24'4 8.4
2018-Jun-24 13:59N 52°23' E 003°30'4 8.1
2018-Jun-24 13:27N 52°25' E 003°37'4 8.0
2018-Jun-24 13:00N 52°27' E 003°41'4 7.7
2018-Jun-24 12:29N 52°29' E 003°47'4 7.5
2018-Jun-24 12:00N 52°31' E 003°52'4 7.5
2018-Jun-24 11:30N 52°31' E 003°58'4 8.0
2018-Jun-24 11:00N 52°31' E 004°05'4 8.1
2018-Jun-24 10:30N 52°31' E 004°11'4 8.6
2018-Jun-24 10:00N 52°30' E 004°18'4 8.6
2018-Jun-24 09:30N 52°29' E 004°25'4 8.6
2018-Jun-24 09:01N 52°28' E 004°32'3 5.3
2018-Jun-24 08:30N 52°28' E 004°36'0 0.0
2018-Jun-24 07:58N 52°28' E 004°36'0 0.0
2018-Jun-24 07:28N 52°28' E 004°36'0 0.0
2018-Jun-24 06:58N 52°28' E 004°36'0 0.0
2018-Jun-24 06:28N 52°28' E 004°36'0 0.0
2018-Jun-24 05:58N 52°28' E 004°36'0 0.0
2018-Jun-24 05:28N 52°28' E 004°36'0 0.0
2018-Jun-24 04:58N 52°28' E 004°36'0 0.0
2018-Jun-24 04:28N 52°28' E 004°36'0 0.0
2018-Jun-24 03:58N 52°28' E 004°36'0 0.0
2018-Jun-24 03:28N 52°28' E 004°36'0 0.0
2018-Jun-24 02:58N 52°28' E 004°36'0 0.0
2018-Jun-24 02:28N 52°28' E 004°36'0 0.0
2018-Jun-24 01:58N 52°28' E 004°36'0 0.0
2018-Jun-24 01:28N 52°28' E 004°36'0 0.0
2018-Jun-24 00:58N 52°28' E 004°36'0 0.0
2018-Jun-24 00:28N 52°28' E 004°36'0 0.0
2018-Jun-24 00:01N 52°28' E 004°36'0 0.0
2018-Jun-23 23:30N 52°28' E 004°36'0 0.0
2018-Jun-23 23:00N 52°28' E 004°36'0 0.0
2018-Jun-23 22:30N 52°28' E 004°36'0 0.0
2018-Jun-23 22:00N 52°28' E 004°36'0 0.0
2018-Jun-23 21:30N 52°28' E 004°36'0 0.0
2018-Jun-23 21:00N 52°28' E 004°36'0 0.0
2018-Jun-23 20:30N 52°28' E 004°36'0 0.0
2018-Jun-23 20:00N 52°28' E 004°36'0 0.0
2018-Jun-23 19:30N 52°28' E 004°36'0 0.0
2018-Jun-23 19:00N 52°28' E 004°36'0 0.0
2018-Jun-23 18:30N 52°28' E 004°36'0 0.0
2018-Jun-23 18:00N 52°28' E 004°36'0 0.0
2018-Jun-23 17:30N 52°28' E 004°36'0 0.0
2018-Jun-23 17:00N 52°28' E 004°36'0 0.0
2018-Jun-23 16:30N 52°28' E 004°36'0 0.0
2018-Jun-23 16:00N 52°28' E 004°36'0 0.0
2018-Jun-23 15:30N 52°28' E 004°36'0 0.0
2018-Jun-23 15:00N 52°28' E 004°36'0 0.0
2018-Jun-23 14:30N 52°28' E 004°36'0 0.0
2018-Jun-23 13:57N 52°28' E 004°36'0 0.1
2018-Jun-23 13:26N 52°28' E 004°36'0 0.0
2018-Jun-23 12:59N 52°28' E 004°36'0 0.0
2018-Jun-23 12:29N 52°28' E 004°36'0 0.0
2018-Jun-23 11:59N 52°28' E 004°36'0 0.0
2018-Jun-23 11:26N 52°28' E 004°36'0 0.0
2018-Jun-23 10:59N 52°28' E 004°36'0 0.0
2018-Jun-23 10:29N 52°28' E 004°36'0 0.0
2018-Jun-23 10:00N 52°28' E 004°36'1 1.2
2018-Jun-23 09:31N 52°28' E 004°35'1 1.0
2018-Jun-23 09:00N 52°28' E 004°36'1 2.4
2018-Jun-23 08:31N 52°28' E 004°38'0 0.0
2018-Jun-23 07:56N 52°28' E 004°38'0 0.0
2018-Jun-23 07:29N 52°28' E 004°38'0 0.0
2018-Jun-23 06:59N 52°28' E 004°38'0 0.0
2018-Jun-23 06:29N 52°28' E 004°38'0 0.0
2018-Jun-23 05:53N 52°28' E 004°38'0 0.0
2018-Jun-23 05:29N 52°28' E 004°38'0 0.0
2018-Jun-23 04:59N 52°28' E 004°38'0 0.0
2018-Jun-23 04:29N 52°28' E 004°38'0 0.0
2018-Jun-23 03:56N 52°28' E 004°38'0 0.0
2018-Jun-23 03:29N 52°28' E 004°38'0 0.0
2018-Jun-23 02:56N 52°28' E 004°38'0 0.0
2018-Jun-23 02:29N 52°28' E 004°38'0 0.0
2018-Jun-23 01:56N 52°28' E 004°38'0 0.0
2018-Jun-23 01:29N 52°28' E 004°38'0 0.0
2018-Jun-23 00:56N 52°28' E 004°38'0 0.0
2018-Jun-23 00:29N 52°28' E 004°38'0 0.0
2018-Jun-22 23:59N 52°28' E 004°38'0 0.0
2018-Jun-22 23:29N 52°28' E 004°38'0 0.0
2018-Jun-22 22:59N 52°28' E 004°38'0 0.0
2018-Jun-22 22:29N 52°28' E 004°38'0 0.0
2018-Jun-22 21:58N 52°28' E 004°38'0 0.0
2018-Jun-22 21:28N 52°28' E 004°38'0 0.0
2018-Jun-22 20:55N 52°28' E 004°38'0 0.0
2018-Jun-22 20:28N 52°28' E 004°38'0 0.0
2018-Jun-22 19:58N 52°28' E 004°38'0 0.0
2018-Jun-22 19:28N 52°28' E 004°38'0 0.0
2018-Jun-22 18:58N 52°28' E 004°38'0 0.0
2018-Jun-22 18:25N 52°28' E 004°38'0 0.0
2018-Jun-22 17:55N 52°28' E 004°38'0 0.0
2018-Jun-22 17:28N 52°28' E 004°38'0 0.0
2018-Jun-22 16:55N 52°28' E 004°38'0 0.0
2018-Jun-22 16:28N 52°28' E 004°38'0 0.0
2018-Jun-22 15:58N 52°28' E 004°38'0 0.0
2018-Jun-22 15:28N 52°28' E 004°38'0 0.0
2018-Jun-22 14:58N 52°28' E 004°38'0 0.0
2018-Jun-22 14:28N 52°28' E 004°38'0 0.0
2018-Jun-22 13:58N 52°28' E 004°38'0 0.0
2018-Jun-22 13:28N 52°28' E 004°38'0 0.0
2018-Jun-22 12:58N 52°28' E 004°38'0 0.0
2018-Jun-22 12:25N 52°28' E 004°38'0 0.0
2018-Jun-22 11:58N 52°28' E 004°38'0 0.0
2018-Jun-22 11:28N 52°28' E 004°38'0 0.3
2018-Jun-22 11:00N 52°28' E 004°38'1 3.0
2018-Jun-22 10:30N 52°28' E 004°35'2 4.6
2018-Jun-22 10:01N 52°28' E 004°32'5 9.2
2018-Jun-22 09:30N 52°28' E 004°24'5 9.3
2018-Jun-22 09:00N 52°28' E 004°16'4 8.4
2018-Jun-22 08:30N 52°27' E 004°10'4 7.3
2018-Jun-22 08:00N 52°24' E 004°07'3 6.1
2018-Jun-22 07:30N 52°21' E 004°05'3 5.2
2018-Jun-22 07:00N 52°19' E 004°04'2 4.3
2018-Jun-22 06:30N 52°17' E 004°04'2 4.4
2018-Jun-22 06:00N 52°14' E 004°03'3 5.5
2018-Jun-22 05:30N 52°12' E 004°02'3 5.6
2018-Jun-22 05:00N 52°09' E 004°01'3 5.8
2018-Jun-22 04:30N 52°07' E 003°58'3 5.8
2018-Jun-22 04:00N 52°04' E 003°56'3 5.3
2018-Jun-22 03:30N 52°02' E 003°54'4 7.3
2018-Jun-22 03:00N 52°01' E 003°59'5 9.2
2018-Jun-22 02:30N 51°59' E 004°06'611.6
2018-Jun-22 02:00N 51°55' E 004°14'510.2
2018-Jun-22 01:30N 51°52' E 004°20'4 8.7
2018-Jun-22 01:00N 51°50' E 004°26'4 8.6
2018-Jun-22 00:30N 51°50' E 004°33'4 7.2
2018-Jun-22 00:00N 51°47' E 004°37'4 7.1
2018-Jun-21 23:30N 51°44' E 004°38'3 4.2
2018-Jun-21 22:52N 51°41' E 004°36'0 0.0
2018-Jun-21 22:28N 51°41' E 004°36'0 0.1
2018-Jun-21 21:55N 51°42' E 004°36'0 0.1
2018-Jun-21 21:28N 51°41' E 004°36'0 0.0
2018-Jun-21 20:58N 51°41' E 004°36'0 0.0
2018-Jun-21 20:28N 51°41' E 004°36'0 0.0
2018-Jun-21 19:58N 51°41' E 004°36'0 0.0
2018-Jun-21 19:28N 51°41' E 004°36'0 0.0
2018-Jun-21 18:58N 51°41' E 004°36'0 0.0
2018-Jun-21 18:25N 51°41' E 004°36'0 0.0
2018-Jun-21 13:25N 51°41' E 004°36'0 0.0
2018-Jun-21 12:55N 51°41' E 004°36'0 0.0
2018-Jun-21 11:13N 51°41' E 004°36'0 0.0
2018-Jun-21 10:43N 51°41' E 004°36'0 0.0
2018-Jun-21 10:19N 51°41' E 004°36'0 0.0
2018-Jun-21 09:58N 51°41' E 004°36'0 0.0
2018-Jun-21 09:23N 51°41' E 004°36'0 0.9
2018-Jun-21 09:00N 51°42' E 004°35'3 6.9
2018-Jun-21 08:30N 51°45' E 004°38'4 8.0
2018-Jun-21 08:00N 51°48' E 004°35'4 7.9
2018-Jun-21 07:30N 51°50' E 004°29'4 8.3
2018-Jun-21 07:00N 51°51' E 004°22'4 7.2
2018-Jun-21 06:30N 51°54' E 004°19'4 8.7
2018-Jun-21 06:00N 51°56' E 004°13'4 8.1
2018-Jun-21 05:30N 51°58' E 004°08'4 7.5
2018-Jun-21 05:00N 51°59' E 004°02'4 7.5
2018-Jun-21 04:30N 51°60' E 003°56'4 8.1
2018-Jun-21 04:00N 51°59' E 003°49'4 7.3
2018-Jun-21 03:30N 51°58' E 003°44'3 6.0
2018-Jun-21 03:00N 51°57' E 003°39'3 5.5
2018-Jun-21 02:30N 51°56' E 003°35'3 5.4
2018-Jun-21 02:00N 51°56' E 003°31'2 4.8
2018-Jun-21 01:30N 51°55' E 003°27'3 5.1
2018-Jun-21 01:01N 51°54' E 003°23'3 5.4
2018-Jun-21 00:30N 51°53' E 003°19'3 5.7
2018-Jun-21 00:00N 51°52' E 003°15'3 6.4
2018-Jun-20 23:28N 51°51' E 003°09'4 7.5
2018-Jun-20 22:57N 51°50' E 003°03'17 8.0
2018-Jun-20 20:52N 51°45' E 002°38'3 8.9
2018-Jun-20 20:30N 51°42' E 002°34'4 9.0
2018-Jun-20 20:00N 51°39' E 002°30'5 9.2
2018-Jun-20 19:26N 51°35' E 002°25'4 9.6
2018-Jun-20 18:58N 51°31' E 002°20'4 9.1
2018-Jun-20 18:30N 51°28' E 002°16'4 9.1
2018-Jun-20 18:00N 51°24' E 002°12'5 9.3
2018-Jun-20 17:31N 51°20' E 002°08'5 9.2
2018-Jun-20 17:01N 51°16' E 002°05'4 8.9
2018-Jun-20 16:31N 51°13' E 002°00'4 8.6
2018-Jun-20 16:01N 51°10' E 001°55'4 8.3
2018-Jun-20 15:30N 51°07' E 001°50'4 8.7
2018-Jun-20 15:00N 51°04' E 001°45'4 8.3
2018-Jun-20 14:30N 51°01' E 001°40'4 7.4
2018-Jun-20 14:00N 50°58' E 001°37'3 6.7
2018-Jun-20 13:31N 50°56' E 001°33'3 6.1
2018-Jun-20 13:00N 50°54' E 001°30'3 5.8
2018-Jun-20 12:31N 50°51' E 001°27'3 6.2
2018-Jun-20 11:58N 50°48' E 001°25'3 6.6
2018-Jun-20 11:30N 50°46' E 001°22'3 6.6
2018-Jun-20 11:00N 50°43' E 001°19'4 7.2
2018-Jun-20 10:28N 50°41' E 001°15'4 7.5
2018-Jun-20 10:00N 50°38' E 001°10'4 7.4
2018-Jun-20 09:27N 50°36' E 001°05'4 7.8
2018-Jun-20 09:00N 50°34' E 001°01'4 7.8
2018-Jun-20 08:28N 50°31' E 000°55'6 8.0
2018-Jun-20 07:45N 50°30' E 000°47'2 8.1
2018-Jun-20 07:29N 50°29' E 000°43'5 8.1
2018-Jun-20 06:55N 50°28' E 000°36'3 8.2
2018-Jun-20 06:30N 50°27' E 000°31'4 8.4
2018-Jun-20 06:00N 50°26' E 000°25'5 8.5
2018-Jun-20 05:22N 50°24' E 000°17'3 8.7
2018-Jun-20 05:00N 50°23' E 000°12'5 8.9
2018-Jun-20 04:26N 50°22' E 000°05'5 9.2
2018-Jun-20 03:56N 50°20' W 000°02'5 9.6
2018-Jun-20 03:24N 50°19' W 000°10'1310.5
2018-Jun-20 02:09N 50°15' W 000°30'1411.4
2018-Jun-20 00:54N 50°11' W 000°51'2811.2
2018-Jun-19 22:25N 50°03' W 001°33'36 7.0
2018-Jun-19 17:14N 49°52' W 002°27'2 6.8
2018-Jun-19 17:00N 49°52' W 002°29'4 7.2
2018-Jun-19 16:26N 49°51' W 002°35'3 7.7
2018-Jun-19 16:00N 49°50' W 002°40'4 8.2
2018-Jun-19 15:31N 49°49' W 002°46'4 8.5
2018-Jun-19 15:00N 49°47' W 002°52'4 8.8
2018-Jun-19 14:30N 49°45' W 002°58'5 9.1
2018-Jun-19 14:00N 49°43' W 003°04'5 9.2
2018-Jun-19 13:28N 49°40' W 003°11'5 9.5
2018-Jun-19 12:57N 49°38' W 003°18'81 9.8
2018-Jun-19 04:38N 48°57' W 005°06'1 8.3
2018-Jun-19 04:28N 48°56' W 005°07'4 8.0
2018-Jun-19 03:57N 48°54' W 005°13'3 7.6
2018-Jun-19 03:30N 48°52' W 005°17'4 7.2
2018-Jun-19 02:54N 48°50' W 005°23'3 7.0
2018-Jun-19 02:29N 48°48' W 005°27'3 6.9
2018-Jun-19 02:00N 48°47' W 005°31'15 6.6
2018-Jun-18 23:41N 48°34' W 005°44'3 6.9
2018-Jun-18 23:18N 48°31' W 005°44'39 8.3
2018-Jun-18 18:36N 47°53' W 005°58'2 9.7
2018-Jun-18 18:26N 47°52' W 005°59'9 9.8
2018-Jun-18 17:32N 47°44' W 006°03'  
2018-Jun-15 17:09N 43°42' W 006°17'2 9.9
2018-Jun-15 16:56N 43°42' W 006°14'7 9.6
2018-Jun-15 16:14N 43°42' W 006°05'310.0
2018-Jun-15 15:59N 43°42' W 006°01'610.0
2018-Jun-15 15:22N 43°41' W 005°53'5 9.4
2018-Jun-15 14:50N 43°41' W 005°46'4 9.6
2018-Jun-15 14:26N 43°41' W 005°40'5 9.8
2018-Jun-15 13:58N 43°41' W 005°34'5 9.7
2018-Jun-15 13:28N 43°40' W 005°27'4 9.6
2018-Jun-15 13:00N 43°40' W 005°21'5 9.4
2018-Jun-15 12:27N 43°40' W 005°14'5 9.5
2018-Jun-15 11:56N 43°40' W 005°07'4 9.4
2018-Jun-15 11:30N 43°39' W 005°02'  

Dump ship's entire track history